createdAt,value
2022-10-21T00:00:42.890Z,3.42
2022-10-21T00:03:10.490Z,3.50
2022-10-21T00:05:37.236Z,3.10
2022-10-21T00:08:03.800Z,3.55
2022-10-21T00:10:30.841Z,3.42
2022-10-21T00:12:57.558Z,3.55
2022-10-21T00:15:24.071Z,3.58
2022-10-21T00:17:54.260Z,3.30
2022-10-21T00:22:53.253Z,4.22
2022-10-21T00:25:21.357Z,4.07
2022-10-21T00:27:48.129Z,3.25
2022-10-21T00:30:15.212Z,3.47
2022-10-21T00:32:41.902Z,3.45
2022-10-21T00:35:08.730Z,3.53
2022-10-21T00:37:35.794Z,3.25
2022-10-21T00:40:04.926Z,2.95
2022-10-21T00:42:39.641Z,3.03
2022-10-21T00:45:08.787Z,2.75
2022-10-21T00:47:44.615Z,3.00
2022-10-21T00:50:48.955Z,2.85
2022-10-21T00:53:16.977Z,3.47
2022-10-21T00:55:48.964Z,3.38
2022-10-21T00:58:18.991Z,3.00
2022-10-21T01:00:45.574Z,2.88
2022-10-21T01:03:12.860Z,3.33
2022-10-21T01:05:44.352Z,2.87
2022-10-21T01:08:11.793Z,3.20
2022-10-21T01:10:39.353Z,3.60
2022-10-21T01:13:38.199Z,3.37
2022-10-21T01:16:21.085Z,2.93
2022-10-21T01:19:08.309Z,3.30
2022-10-21T01:21:40.110Z,3.20
2022-10-21T01:24:15.817Z,3.45
2022-10-21T01:27:01.051Z,3.13
2022-10-21T01:30:11.010Z,3.08
2022-10-21T01:32:57.453Z,2.85
2022-10-21T01:35:34.545Z,3.00
2022-10-21T01:38:14.232Z,3.17
2022-10-21T01:41:06.713Z,3.00
2022-10-21T01:43:50.829Z,3.40
2022-10-21T01:46:27.643Z,2.13
2022-10-21T01:49:07.259Z,2.60
2022-10-21T01:51:36.747Z,2.88
2022-10-21T01:54:09.908Z,2.90
2022-10-21T01:56:40.257Z,3.10
2022-10-21T01:59:11.096Z,2.50
2022-10-21T02:01:39.800Z,2.55
2022-10-21T02:04:08.848Z,2.72
2022-10-21T02:06:35.451Z,2.38
2022-10-21T02:09:03.564Z,2.53
2022-10-21T02:11:34.222Z,2.63
2022-10-21T02:14:07.247Z,2.63
2022-10-21T02:16:38.799Z,3.67
2022-10-21T02:19:14.067Z,4.40
2022-10-21T02:21:43.709Z,3.33
2022-10-21T02:24:24.360Z,2.72
2022-10-21T02:26:51.238Z,2.83
2022-10-21T02:29:23.304Z,3.05
2022-10-21T02:32:05.517Z,2.97
2022-10-21T02:35:00.283Z,2.93
2022-10-21T02:37:35.895Z,2.92
2022-10-21T02:40:11.943Z,2.70
2022-10-21T02:42:45.111Z,2.87
2022-10-21T02:45:12.208Z,2.60
2022-10-21T02:47:40.524Z,2.37
2022-10-21T02:50:08.654Z,2.50
2022-10-21T02:52:35.103Z,2.30
2022-10-21T02:55:01.919Z,2.50
2022-10-21T02:57:28.685Z,2.72
2022-10-21T02:59:56.341Z,2.80
2022-10-21T03:02:23.128Z,3.20
2022-10-21T03:04:49.642Z,2.60
2022-10-21T03:07:16.184Z,2.78
2022-10-21T03:09:43.059Z,2.57
2022-10-21T03:12:09.720Z,2.58
2022-10-21T03:14:37.328Z,3.30
2022-10-21T03:17:05.452Z,2.77
2022-10-21T03:19:32.140Z,2.63
2022-10-21T03:21:58.608Z,2.90
2022-10-21T03:24:28.810Z,3.90
2022-10-21T03:26:56.384Z,2.80
2022-10-21T03:29:23.570Z,3.07
2022-10-21T03:31:50.311Z,3.35
2022-10-21T03:34:17.144Z,2.60
2022-10-21T03:36:44.142Z,3.00
2022-10-21T03:39:11.814Z,2.47
2022-10-21T03:41:38.864Z,2.63
2022-10-21T03:44:05.641Z,2.47
2022-10-21T03:46:32.384Z,2.70
2022-10-21T03:49:03.029Z,3.00
2022-10-21T03:51:32.407Z,2.70
2022-10-21T03:53:59.007Z,2.53
2022-10-21T03:56:25.911Z,2.63
2022-10-21T03:58:56.375Z,2.73
2022-10-21T04:01:27.287Z,2.80
2022-10-21T04:03:53.920Z,2.80
2022-10-21T04:06:21.220Z,2.33
2022-10-21T04:08:48.178Z,2.77
2022-10-21T04:11:15.709Z,2.57
2022-10-21T04:13:42.654Z,3.03
2022-10-21T04:16:15.840Z,3.08
2022-10-21T04:18:45.598Z,2.30
2022-10-21T04:21:12.850Z,2.80
2022-10-21T04:23:39.858Z,2.83
2022-10-21T04:26:08.045Z,2.90
2022-10-21T04:28:35.317Z,2.60
2022-10-21T04:31:01.975Z,2.75
2022-10-21T04:33:28.659Z,2.65
2022-10-21T04:35:56.102Z,2.90
2022-10-21T04:38:26.511Z,3.37
2022-10-21T04:40:56.892Z,2.93
2022-10-21T04:43:27.958Z,3.00
2022-10-21T04:45:57.255Z,2.80
2022-10-21T04:48:24.407Z,2.78
2022-10-21T04:50:52.468Z,3.05
2022-10-21T04:53:20.173Z,3.10
2022-10-21T04:55:51.093Z,3.20
2022-10-21T04:58:20.961Z,3.22
2022-10-21T05:00:49.326Z,2.95
2022-10-21T05:03:16.366Z,3.10
2022-10-21T05:05:42.900Z,3.22
2022-10-21T05:08:11.592Z,2.72
2022-10-21T05:10:38.593Z,3.05
2022-10-21T05:13:07.535Z,3.00
2022-10-21T05:15:34.498Z,3.45
2022-10-21T05:18:01.341Z,3.17
2022-10-21T05:20:28.362Z,3.40
2022-10-21T05:22:55.328Z,4.20
2022-10-21T05:25:23.025Z,4.10
2022-10-21T05:27:51.117Z,3.88
2022-10-21T05:30:17.815Z,3.60
2022-10-21T05:32:45.162Z,3.83
2022-10-21T05:35:12.307Z,3.90
2022-10-21T05:37:39.125Z,4.10
2022-10-21T05:40:07.681Z,4.13
2022-10-21T05:42:34.494Z,3.90
2022-10-21T05:45:01.102Z,4.00
2022-10-21T05:47:27.821Z,4.10
2022-10-21T05:49:54.636Z,3.60
2022-10-21T05:52:21.213Z,3.93
2022-10-21T05:54:47.754Z,3.73
2022-10-21T05:57:19.534Z,2.95
2022-10-21T05:59:46.176Z,3.30
2022-10-21T06:02:13.394Z,3.27
2022-10-21T06:04:40.262Z,3.53
2022-10-21T06:07:06.942Z,3.58
2022-10-21T06:09:36.192Z,4.47
2022-10-21T06:12:03.045Z,4.03
2022-10-21T06:14:29.863Z,5.28
2022-10-21T06:16:56.634Z,4.07
2022-10-21T06:19:23.140Z,3.63
2022-10-21T06:21:49.906Z,3.55
2022-10-21T06:24:16.604Z,3.50
2022-10-21T06:26:43.354Z,3.30
2022-10-21T06:29:09.925Z,3.25
2022-10-21T06:31:38.028Z,3.08
2022-10-21T06:34:04.995Z,3.13
2022-10-21T06:36:31.604Z,2.90
2022-10-21T06:38:58.502Z,2.97
2022-10-21T06:41:25.246Z,3.10
2022-10-21T06:43:51.825Z,3.30
2022-10-21T06:46:18.328Z,3.13
2022-10-21T06:48:45.118Z,5.22
2022-10-21T06:51:17.456Z,4.80
2022-10-21T06:53:44.300Z,3.30
2022-10-21T06:56:16.709Z,3.37
2022-10-21T06:58:48.041Z,3.45
2022-10-21T07:01:48.433Z,4.35
2022-10-21T07:04:23.284Z,3.55
2022-10-21T07:06:50.142Z,3.28
2022-10-21T07:09:17.134Z,2.78
2022-10-21T07:11:45.069Z,3.25
2022-10-21T07:14:14.749Z,2.97
2022-10-21T07:16:41.533Z,2.75
2022-10-21T07:19:10.372Z,2.90
2022-10-21T07:21:36.948Z,3.13
2022-10-21T07:24:03.651Z,3.15
2022-10-21T07:26:33.350Z,5.18
2022-10-21T07:29:01.034Z,5.38
2022-10-21T07:31:31.150Z,4.22
2022-10-21T07:34:00.262Z,4.70
2022-10-21T07:36:30.439Z,7.00
2022-10-21T07:39:04.184Z,6.03
2022-10-21T07:41:39.561Z,5.65
2022-10-21T07:44:07.332Z,5.85
2022-10-21T07:46:36.885Z,4.70
2022-10-21T07:49:03.573Z,3.85
2022-10-21T07:51:31.340Z,4.15
2022-10-21T07:54:00.429Z,3.63
2022-10-21T07:56:52.284Z,3.53
2022-10-21T07:59:21.363Z,3.35
2022-10-21T08:04:19.388Z,3.05
2022-10-21T08:06:48.438Z,3.50
2022-10-21T08:09:15.915Z,3.17
2022-10-21T08:11:43.975Z,3.03
2022-10-21T08:14:11.434Z,3.08
2022-10-21T08:16:38.846Z,2.92
2022-10-21T08:19:06.247Z,3.67
2022-10-21T08:21:32.990Z,5.43
2022-10-21T08:24:02.525Z,5.10
2022-10-21T08:26:30.005Z,5.68
2022-10-21T08:28:56.503Z,6.00
2022-10-21T08:31:23.685Z,5.15
2022-10-21T08:33:52.399Z,5.20
2022-10-21T08:36:22.774Z,7.38
2022-10-21T08:38:50.404Z,7.22
2022-10-21T08:41:29.060Z,5.22
2022-10-21T08:44:00.384Z,3.92
2022-10-21T08:46:31.852Z,3.63
2022-10-21T08:49:06.556Z,3.13
2022-10-21T08:51:38.411Z,3.25
2022-10-21T08:54:12.233Z,4.45
2022-10-21T08:56:38.724Z,3.47
2022-10-21T08:59:18.364Z,3.85
2022-10-21T09:02:27.894Z,3.00
2022-10-21T09:05:23.313Z,3.20
2022-10-21T09:08:11.032Z,4.25
2022-10-21T09:11:15.646Z,4.28
2022-10-21T09:14:09.825Z,3.55
2022-10-21T09:16:59.689Z,2.88
2022-10-21T09:19:45.960Z,2.40
2022-10-21T09:22:35.964Z,2.17
2022-10-21T09:25:26.592Z,6.57
2022-10-21T09:27:57.390Z,3.30
2022-10-21T09:30:25.362Z,2.30
2022-10-21T09:32:58.136Z,3.33
2022-10-21T09:35:36.614Z,2.78
2022-10-21T09:38:22.042Z,1.75
2022-10-21T09:40:52.162Z,1.75
2022-10-21T09:43:23.978Z,3.35
2022-10-21T09:45:50.605Z,2.70
2022-10-21T09:48:20.362Z,1.67
2022-10-21T09:51:11.009Z,1.35
2022-10-21T09:53:49.957Z,1.20
2022-10-21T09:56:35.923Z,1.35
2022-10-21T09:59:13.909Z,2.13
2022-10-21T10:01:43.437Z,1.30
2022-10-21T10:04:35.131Z,1.30
2022-10-21T10:07:26.818Z,3.28
2022-10-21T10:09:53.828Z,1.67
2022-10-21T10:12:26.256Z,2.85
2022-10-21T10:14:53.892Z,2.42
2022-10-21T10:17:36.072Z,1.10
2022-10-21T10:20:08.431Z,1.27
2022-10-21T10:22:43.236Z,2.75
2022-10-21T10:25:18.959Z,7.15
2022-10-21T10:27:50.005Z,8.15
2022-10-21T10:30:18.152Z,3.80
2022-10-21T10:32:46.361Z,0.98
2022-10-21T10:35:30.067Z,0.98
2022-10-21T10:38:02.300Z,1.90
2022-10-21T10:40:32.618Z,0.80
2022-10-21T10:43:07.899Z,0.88
2022-10-21T10:45:35.162Z,1.05
2022-10-21T10:48:06.240Z,0.80
2022-10-21T10:50:47.343Z,0.85
2022-10-21T10:53:37.570Z,0.75
2022-10-21T10:56:15.016Z,0.57
2022-10-21T10:58:47.467Z,0.60
2022-10-21T11:01:22.673Z,0.40
2022-10-21T11:04:01.110Z,1.08
2022-10-21T11:06:42.571Z,1.08
2022-10-21T11:09:09.602Z,0.57
2022-10-21T11:11:48.984Z,1.00
2022-10-21T11:14:22.538Z,1.10
2022-10-21T11:17:15.460Z,1.13
2022-10-21T11:19:51.546Z,1.17
2022-10-21T11:22:29.274Z,0.80
2022-10-21T11:25:14.005Z,0.80
2022-10-21T11:28:12.758Z,0.80
2022-10-21T11:31:18.820Z,1.10
2022-10-21T11:34:03.391Z,0.60
2022-10-21T11:36:51.788Z,1.15
2022-10-21T11:39:30.398Z,1.00
2022-10-21T11:42:10.592Z,0.90
2022-10-21T11:44:55.641Z,0.82
2022-10-21T11:47:28.700Z,1.10
2022-10-21T11:50:16.564Z,1.05
2022-10-21T11:53:11.627Z,1.25
2022-10-21T11:55:47.326Z,0.80
2022-10-21T11:58:42.682Z,0.80
2022-10-21T12:01:31.258Z,0.60
2022-10-21T12:04:00.784Z,1.00
2022-10-21T12:06:41.791Z,1.00
2022-10-21T12:09:25.613Z,1.00
2022-10-21T12:12:16.600Z,0.80
2022-10-21T12:14:48.900Z,0.70
2022-10-21T12:17:20.808Z,0.90
2022-10-21T12:19:55.326Z,0.82
2022-10-21T12:22:24.813Z,0.77
2022-10-21T12:25:18.694Z,0.80
2022-10-21T12:27:55.475Z,0.90
2022-10-21T12:30:31.453Z,1.00
2022-10-21T12:33:20.362Z,0.57
2022-10-21T12:35:58.917Z,0.95
2022-10-21T12:38:50.377Z,0.50
2022-10-21T12:41:34.997Z,0.90
2022-10-21T12:44:03.252Z,1.00
2022-10-21T12:46:39.224Z,0.70
2022-10-21T12:49:20.159Z,0.80
2022-10-21T12:51:56.662Z,0.80
2022-10-21T12:54:30.378Z,0.93
2022-10-21T12:57:04.720Z,0.95
2022-10-21T12:59:33.962Z,0.90
2022-10-21T13:02:10.275Z,0.90
2022-10-21T13:04:38.447Z,1.00
2022-10-21T13:07:26.187Z,0.77
2022-10-21T13:09:54.111Z,1.00
2022-10-21T13:12:24.020Z,0.90
2022-10-21T13:15:23.243Z,1.20
2022-10-21T13:18:00.218Z,1.08
2022-10-21T13:20:26.807Z,0.82
2022-10-21T13:23:03.429Z,0.90
2022-10-21T13:25:35.437Z,1.10
2022-10-21T13:28:14.269Z,0.98
2022-10-21T13:30:59.007Z,0.88
2022-10-21T13:33:29.929Z,1.20
2022-10-21T13:36:04.074Z,1.33
2022-10-21T13:38:35.521Z,1.33
2022-10-21T13:41:05.869Z,0.90
2022-10-21T13:43:42.233Z,1.30
2022-10-21T13:46:17.618Z,1.40
2022-10-21T13:48:48.048Z,1.38
2022-10-21T13:51:20.882Z,1.38
2022-10-21T13:53:48.790Z,1.08
2022-10-21T13:56:25.840Z,1.52
2022-10-21T13:58:52.983Z,1.00
2022-10-21T14:01:25.979Z,1.30
2022-10-21T14:03:55.245Z,1.23
2022-10-21T14:06:32.390Z,1.05
2022-10-21T14:09:08.143Z,1.20
2022-10-21T14:11:42.318Z,1.23
2022-10-21T14:14:13.713Z,1.30
2022-10-21T14:16:47.406Z,1.17
2022-10-21T14:19:27.827Z,1.20
2022-10-21T14:22:01.973Z,1.10
2022-10-21T14:24:32.258Z,1.45
2022-10-21T14:26:59.317Z,1.55
2022-10-21T14:29:45.986Z,2.70
2022-10-21T14:32:19.877Z,1.90
2022-10-21T14:35:15.822Z,1.40
2022-10-21T14:37:53.014Z,1.70
2022-10-21T14:40:43.817Z,1.42
2022-10-21T14:43:34.040Z,1.80
2022-10-21T14:46:01.051Z,1.88
2022-10-21T14:48:32.008Z,1.30
2022-10-21T14:51:01.997Z,1.20
2022-10-21T14:53:35.636Z,2.42
2022-10-21T14:56:05.817Z,1.58
2022-10-21T14:58:35.891Z,1.33
2022-10-21T15:01:18.428Z,1.60
2022-10-21T15:03:48.729Z,1.70
2022-10-21T15:06:24.633Z,1.77
2022-10-21T15:09:02.886Z,1.90
2022-10-21T15:11:31.071Z,1.58
2022-10-21T15:14:13.261Z,1.80
2022-10-21T15:16:54.637Z,1.83
2022-10-21T15:19:27.391Z,1.90
2022-10-21T15:21:56.259Z,1.40
2022-10-21T15:24:35.459Z,1.60
2022-10-21T15:27:02.661Z,1.35
2022-10-21T15:29:36.029Z,1.58
2022-10-21T15:32:04.461Z,2.22
2022-10-21T15:34:31.175Z,1.40
2022-10-21T15:36:58.181Z,1.90
2022-10-21T15:39:25.170Z,1.67
2022-10-21T15:41:56.408Z,1.63
2022-10-21T15:44:31.753Z,1.98
2022-10-21T15:47:00.966Z,1.60
2022-10-21T15:49:34.284Z,1.55
2022-10-21T15:52:01.464Z,1.55
2022-10-21T15:54:28.184Z,2.00
2022-10-21T15:56:55.257Z,1.77
2022-10-21T15:59:31.766Z,1.30
2022-10-21T16:02:02.826Z,1.88
2022-10-21T16:04:29.864Z,2.05
2022-10-21T16:06:59.635Z,2.28
2022-10-21T16:09:28.857Z,1.90
2022-10-21T16:12:00.129Z,2.22
2022-10-21T16:14:30.181Z,2.55
2022-10-21T16:16:59.535Z,2.60
2022-10-21T16:19:26.497Z,3.55
2022-10-21T16:21:53.615Z,2.15
2022-10-21T16:24:20.602Z,1.77
2022-10-21T16:26:49.334Z,1.80
2022-10-21T16:29:23.151Z,2.15
2022-10-21T16:31:56.620Z,2.20
2022-10-21T16:34:23.317Z,2.60
2022-10-21T16:36:50.145Z,2.88
2022-10-21T16:39:22.389Z,2.63
2022-10-21T16:41:49.747Z,2.30
2022-10-21T16:44:16.647Z,2.65
2022-10-21T16:46:52.489Z,2.40
2022-10-21T16:49:24.669Z,2.08
2022-10-21T16:51:53.009Z,2.40
2022-10-21T16:54:20.971Z,2.72
2022-10-21T16:56:48.194Z,2.25
2022-10-21T16:59:16.642Z,2.40
2022-10-21T17:01:44.225Z,2.83
2022-10-21T17:04:14.710Z,3.47
2022-10-21T17:06:41.864Z,3.53
2022-10-21T17:09:10.019Z,3.72
2022-10-21T17:11:39.646Z,4.13
2022-10-21T17:14:11.010Z,3.10
2022-10-21T17:16:37.689Z,3.60
2022-10-21T17:19:05.106Z,3.28
2022-10-21T17:21:32.911Z,3.13
2022-10-21T17:24:02.311Z,3.30
2022-10-21T17:26:49.525Z,4.03
2022-10-21T17:29:19.198Z,4.88
2022-10-21T17:31:46.440Z,3.60
2022-10-21T17:34:29.872Z,2.90
2022-10-21T17:36:57.537Z,2.47
2022-10-21T17:39:25.034Z,2.63
2022-10-21T17:41:51.846Z,4.70
2022-10-21T17:44:18.449Z,6.28
2022-10-21T17:46:47.701Z,6.82
2022-10-21T17:49:14.547Z,6.90
2022-10-21T17:51:41.342Z,11.13
2022-10-21T17:54:07.911Z,4.53
2022-10-21T17:56:37.881Z,5.78
2022-10-21T17:59:04.515Z,4.07
2022-10-21T18:01:31.056Z,3.47
2022-10-21T18:03:59.530Z,5.97
2022-10-21T18:06:26.969Z,6.10
2022-10-21T18:08:54.100Z,5.35
2022-10-21T18:11:21.674Z,3.67
2022-10-21T18:13:53.622Z,3.53
2022-10-21T18:16:23.786Z,2.97
2022-10-21T18:18:51.198Z,2.95
2022-10-21T18:21:21.309Z,2.60
2022-10-21T18:23:51.425Z,2.53
2022-10-21T18:26:24.709Z,2.83
2022-10-21T18:28:59.777Z,2.80
2022-10-21T18:31:30.988Z,2.25
2022-10-21T18:33:59.521Z,2.40
2022-10-21T18:36:27.316Z,2.13
2022-10-21T18:38:55.354Z,1.95
2022-10-21T18:41:22.460Z,2.78
2022-10-21T18:43:51.579Z,2.10
2022-10-21T18:46:19.641Z,2.33
2022-10-21T18:48:46.559Z,2.28
2022-10-21T18:51:16.101Z,2.20
2022-10-21T18:53:46.071Z,2.25
2022-10-21T18:56:16.357Z,2.03
2022-10-21T18:58:44.606Z,2.10
2022-10-21T19:01:12.468Z,2.13
2022-10-21T19:03:39.116Z,2.30
2022-10-21T19:06:36.309Z,2.10
2022-10-21T19:09:10.946Z,1.80
2022-10-21T19:11:40.873Z,2.00
2022-10-21T19:14:11.210Z,1.95
2022-10-21T19:16:44.081Z,2.10
2022-10-21T19:19:12.193Z,2.20
2022-10-21T19:21:38.839Z,2.28
2022-10-21T19:24:05.670Z,2.45
2022-10-21T19:26:34.181Z,2.25
2022-10-21T19:29:08.531Z,3.40
2022-10-21T19:31:36.484Z,2.95
2022-10-21T19:34:06.311Z,3.00
2022-10-21T19:36:33.699Z,2.05
2022-10-21T19:39:00.213Z,2.70
2022-10-21T19:41:26.759Z,2.35
2022-10-21T19:44:00.148Z,3.10
2022-10-21T19:46:30.548Z,4.80
2022-10-21T19:48:57.286Z,5.65
2022-10-21T19:51:25.822Z,5.80
2022-10-21T19:53:53.741Z,4.40
2022-10-21T19:56:25.568Z,2.83
2022-10-21T19:58:55.005Z,3.67
2022-10-21T20:01:24.633Z,3.80
2022-10-21T20:03:53.137Z,4.95
2022-10-21T20:06:26.996Z,5.50
2022-10-21T20:09:01.135Z,5.10
2022-10-21T20:11:29.529Z,4.53
2022-10-21T20:13:58.702Z,5.22
2022-10-21T20:16:31.519Z,5.30
2022-10-21T20:19:02.752Z,3.95
2022-10-21T20:21:31.113Z,3.58
2022-10-21T20:23:59.080Z,3.78
2022-10-21T20:26:27.007Z,4.07
2022-10-21T20:28:54.031Z,3.28
2022-10-21T20:31:20.908Z,3.25
2022-10-21T20:33:50.207Z,3.13
2022-10-21T20:36:20.434Z,3.17
2022-10-21T20:38:48.395Z,2.55
2022-10-21T20:41:23.448Z,3.72
2022-10-21T20:43:50.981Z,3.35
2022-10-21T20:46:19.966Z,3.30
2022-10-21T20:48:49.585Z,3.90
2022-10-21T20:51:19.053Z,5.15
2022-10-21T20:53:50.935Z,5.07
2022-10-21T20:56:18.301Z,4.60
2022-10-21T20:58:45.368Z,4.55
2022-10-21T21:01:14.692Z,4.18
2022-10-21T21:03:43.002Z,5.32
2022-10-21T21:06:11.688Z,4.70
2022-10-21T21:08:48.603Z,4.03
2022-10-21T21:11:16.187Z,4.30
2022-10-21T21:13:44.567Z,4.32
2022-10-21T21:16:13.733Z,4.00
2022-10-21T21:18:43.425Z,4.45
2022-10-21T21:21:16.317Z,5.57
2022-10-21T21:23:44.312Z,4.30
2022-10-21T21:26:32.579Z,3.92
2022-10-21T21:28:59.061Z,3.60
2022-10-21T21:31:27.492Z,3.95
2022-10-21T21:33:55.177Z,2.92
2022-10-21T21:36:22.396Z,2.85
2022-10-21T21:38:50.714Z,2.90
2022-10-21T21:41:19.644Z,3.10
2022-10-21T21:43:47.820Z,3.67
2022-10-21T21:46:23.821Z,3.13
2022-10-21T21:48:55.230Z,3.88
2022-10-21T21:51:25.076Z,3.42
2022-10-21T21:53:51.883Z,3.95
2022-10-21T21:56:19.922Z,3.80
2022-10-21T21:58:47.993Z,3.65
2022-10-21T22:01:23.100Z,3.47
2022-10-21T22:03:52.258Z,3.10
2022-10-21T22:06:27.838Z,3.25
2022-10-21T22:08:54.758Z,3.20
2022-10-21T22:11:25.154Z,3.20
2022-10-21T22:13:52.637Z,2.80
2022-10-21T22:16:24.489Z,2.72
2022-10-21T22:18:52.009Z,2.65
2022-10-21T22:21:18.628Z,3.10
2022-10-21T22:23:46.905Z,3.30
2022-10-21T22:26:18.455Z,3.08
2022-10-21T22:28:45.728Z,3.43
2022-10-21T22:31:18.955Z,3.75
2022-10-21T22:33:46.306Z,4.20
2022-10-21T22:36:13.240Z,5.38
2022-10-21T22:38:40.001Z,5.47
2022-10-21T22:41:12.243Z,4.90
2022-10-21T22:43:39.387Z,6.07
2022-10-21T22:46:21.537Z,5.33
2022-10-21T22:48:53.259Z,4.50
2022-10-21T22:51:19.908Z,4.97
2022-10-21T22:53:50.784Z,4.70
2022-10-21T22:56:23.503Z,4.80
2022-10-21T22:58:49.954Z,4.13
2022-10-21T23:01:16.501Z,3.70
2022-10-21T23:03:43.061Z,3.93
2022-10-21T23:06:10.906Z,4.30
2022-10-21T23:08:39.313Z,4.93
2022-10-21T23:11:05.918Z,4.20
2022-10-21T23:13:32.515Z,4.23
2022-10-21T23:16:01.435Z,5.00
2022-10-21T23:18:28.250Z,5.80
2022-10-21T23:20:55.051Z,5.80
2022-10-21T23:23:21.825Z,6.77
2022-10-21T23:25:48.380Z,5.90
2022-10-21T23:28:15.003Z,5.40
2022-10-21T23:30:43.320Z,4.00
2022-10-21T23:33:10.280Z,3.17
2022-10-21T23:35:36.931Z,4.00
2022-10-21T23:38:03.548Z,3.90
2022-10-21T23:40:30.348Z,2.70
2022-10-21T23:42:57.363Z,3.37
2022-10-21T23:45:24.393Z,3.73
2022-10-21T23:47:51.165Z,3.13
2022-10-21T23:50:19.142Z,3.37
2022-10-21T23:52:45.652Z,2.73
2022-10-21T23:55:12.293Z,2.40
2022-10-21T23:57:39.611Z,2.60
